Weather History for Sauk Centre, MN

Change the Weather History Date:

Monday, January 13, 2014

  Actual Average (KGHW) Record (KGHW)
Temperature  
Mean Temperature 24 °F -  
Max Temperature 29 °F 21 °F 49 °F (1987)
Min Temperature 18 °F 0 °F -31 °F (2009)
Degree Days  
Heating Degree Days 42    
Moisture  
Dew Point 17 °F    
Average Humidity 81    
Maximum Humidity 93    
Minimum Humidity 71    
Precipitation  
Precipitation 0.00 in - - ()
Sea Level Pressure  
Sea Level Pressure 29.59 in    
Wind  
Wind Speed 11 mph (WNW)    
Max Wind Speed 21 mph    
Max Gust Speed 26 mph    
Visibility 10 miles    
Events Snow    
Averages and records for this station are not official NWS values.
T = Trace of Precipitation, MM = Missing Value Source: NWS Daily Summary

Daily Weather History Graph

Daily Weather History Graph

Search for Another Location

Airport:

Trip Planner

Search our weather history database for the weather conditions in past years. The results will help you decide how hot, cold, wet, or windy it might be!

Date:

Astronomy

Jan. 13, 2014 Rise Set
Actual Time 7:57 AM CST 4:59 PM CST
Civil Twilight 7:24 AM CST 5:33 PM CST
Nautical Twilight 6:47 AM CST 6:10 PM CST
Astronomical Twilight 6:11 AM CST 6:45 PM CST
Moon 3:16 PM CST (1/13) 5:46 AM CST (1/13)
Length of Visible Light 10h 08m
Length of Day
9h 01m
Waxing Gibbous, 95% of the Moon is Illuminated
Jan 13
Waxing Gibbous
Jan 15
Full
Jan 23
Last Quarter
Jan 30
New
Feb 6
First Quarter

Hourly Weather History & Observations

Time (CST) Temp. Windchill Dew Point Humidity Pressure Visibility Wind Dir Wind Speed Gust Speed Precip Events Conditions
12:13 AM 27.0 °F 16.7 °F 23.5 °F 87% 29.50 in 10.0 mi West 11.5 mph - N/A   Clear
12:32 AM 26.4 °F 18.0 °F 23.2 °F 88% 29.50 in 10.0 mi WNW 8.1 mph - N/A   Clear
12:53 AM 27.3 °F 16.1 °F 24.1 °F 88% 29.51 in 10.0 mi WNW 13.8 mph - N/A   Clear
1:13 AM 29.1 °F 18.4 °F 25.2 °F 85% 29.52 in 10.0 mi WNW 13.8 mph 21.9 mph N/A   Scattered Clouds
1:32 AM 28.6 °F 17.2 °F 25.0 °F 86% 29.52 in 10.0 mi WNW 15.0 mph - N/A   Mostly Cloudy
1:53 AM 29.1 °F 17.9 °F 24.8 °F 84% 29.53 in 10.0 mi WNW 15.0 mph 20.7 mph N/A   Overcast
2:13 AM 29.3 °F 16.6 °F 24.3 °F 81% 29.54 in 10.0 mi WNW 19.6 mph 24.2 mph N/A   Overcast
2:32 AM 28.9 °F 15.8 °F 23.7 °F 81% 29.55 in 10.0 mi NW 20.7 mph 25.3 mph N/A   Overcast
2:53 AM 28.4 °F 16.2 °F 23.5 °F 82% 29.56 in 10.0 mi NW 17.3 mph - N/A   Overcast
3:13 AM 28.2 °F 14.8 °F 22.1 °F 78% 29.57 in 10.0 mi NW 20.7 mph 26.5 mph N/A   Overcast
3:32 AM 27.7 °F 17.1 °F 22.5 °F 81% 29.58 in 10.0 mi WNW 12.7 mph - N/A   Overcast
3:53 AM 27.1 °F 14.9 °F 21.2 °F 78% 29.59 in 10.0 mi WNW 16.1 mph 20.7 mph N/A   Overcast
4:12 AM 26.4 °F 13.6 °F 19.9 °F 77% 29.59 in 10.0 mi NW 17.3 mph - N/A   Overcast
4:32 AM 25.3 °F 12.6 °F 19.8 °F 79% 29.59 in 10.0 mi WNW 16.1 mph - N/A   Mostly Cloudy
4:53 AM 23.9 °F 11.7 °F 18.3 °F 79% 29.60 in 10.0 mi WNW 13.8 mph - N/A   Scattered Clouds
5:12 AM 22.8 °F 12.2 °F 17.4 °F 80% 29.61 in 10.0 mi WNW 10.4 mph - N/A   Clear
5:33 AM 22.8 °F 12.2 °F 17.6 °F 80% 29.61 in 10.0 mi WNW 10.4 mph - N/A   Mostly Cloudy
5:53 AM 23.7 °F 13.3 °F 18.5 °F 80% 29.61 in 10.0 mi WNW 10.4 mph - N/A   Overcast
6:12 AM 23.7 °F 12.6 °F 18.5 °F 80% 29.61 in 10.0 mi West 11.5 mph - N/A   Overcast
6:33 AM 22.5 °F 11.1 °F 16.5 °F 78% 29.61 in 10.0 mi West 11.5 mph 18.4 mph N/A   Scattered Clouds
6:53 AM 20.3 °F 9.0 °F 15.3 °F 81% 29.62 in 10.0 mi West 10.4 mph - N/A   Clear
7:12 AM 19.9 °F 8.6 °F 14.7 °F 80% 29.63 in 10.0 mi West 10.4 mph - N/A   Mostly Cloudy
7:33 AM 18.5 °F 7.5 °F 13.1 °F 79% 29.64 in 10.0 mi West 9.2 mph - N/A   Scattered Clouds
7:52 AM 18.5 °F 5.5 °F 13.3 °F 80% 29.64 in 10.0 mi WNW 12.7 mph - N/A   Mostly Cloudy
8:12 AM 19.4 °F 7.9 °F 15.1 °F 83% 29.64 in 10.0 mi West 10.4 mph - N/A   Overcast
8:33 AM 19.0 °F 10.0 °F 14.0 °F 81% 29.64 in 10.0 mi West 6.9 mph - N/A   Mostly Cloudy
8:52 AM 18.3 °F 9.1 °F 12.9 °F 79% 29.64 in 10.0 mi West 6.9 mph - N/A   Scattered Clouds
9:12 AM 18.0 °F 5.4 °F 12.0 °F 78% 29.65 in 10.0 mi West 11.5 mph - N/A   Clear
9:33 AM 18.3 °F 6.6 °F 12.0 °F 76% 29.65 in 10.0 mi West 10.4 mph - N/A   Clear
9:52 AM 18.3 °F 6.6 °F 11.8 °F 76% 29.65 in 10.0 mi West 10.4 mph - N/A   Clear
10:13 AM 19.0 °F 7.5 °F 12.2 °F 75% 29.65 in 10.0 mi WNW 10.4 mph - N/A   Clear
10:33 AM 19.4 °F 7.2 °F 12.7 °F 75% 29.65 in 10.0 mi West 11.5 mph - N/A   Clear
10:52 AM 19.9 °F 7.9 °F 13.1 °F 75% 29.65 in 10.0 mi West 11.5 mph - N/A   Clear
11:13 AM 20.5 °F 6.9 °F 13.1 °F 73% 29.65 in 10.0 mi West 15.0 mph 20.7 mph N/A   Clear
11:33 AM 21.0 °F 9.9 °F 13.3 °F 72% 29.65 in 10.0 mi WNW 10.4 mph - N/A   Clear
11:52 AM 21.6 °F 9.9 °F 14.0 °F 73% 29.64 in 10.0 mi West 11.5 mph - N/A   Clear
12:13 PM 22.1 °F 10.0 °F 14.7 °F 73% 29.63 in 10.0 mi WNW 12.7 mph - N/A   Clear
12:33 PM 22.6 °F 11.3 °F 15.1 °F 73% 29.63 in 10.0 mi WNW 11.5 mph - N/A   Clear
12:52 PM 23.0 °F 12.4 °F 15.4 °F 73% 29.62 in 10.0 mi WNW 10.4 mph - N/A   Clear
1:13 PM 23.4 °F 12.8 °F 15.3 °F 71% 29.62 in 10.0 mi West 10.4 mph 16.1 mph N/A   Clear
1:32 PM 23.5 °F 13.0 °F 15.8 °F 72% 29.61 in 10.0 mi WNW 10.4 mph - N/A   Clear
1:52 PM 23.5 °F 10.8 °F 16.0 °F 73% 29.62 in 10.0 mi West 15.0 mph - N/A   Clear
2:13 PM 23.5 °F 12.4 °F 16.2 °F 73% 29.62 in 10.0 mi West 11.5 mph - N/A   Clear
2:32 PM 23.5 °F 14.5 °F 16.5 °F 75% 29.62 in 10.0 mi West 8.1 mph - N/A   Clear
2:52 PM 23.4 °F 12.2 °F 16.3 °F 75% 29.62 in 10.0 mi West 11.5 mph - N/A   Clear
3:13 PM 23.7 °F 13.3 °F 16.7 °F 75% 29.61 in 10.0 mi West 10.4 mph - N/A   Clear
3:32 PM 23.0 °F 13.1 °F 16.7 °F 77% 29.61 in 10.0 mi West 9.2 mph - N/A   Clear
3:52 PM 22.1 °F 13.7 °F 16.5 °F 79% 29.61 in 10.0 mi WSW 6.9 mph - N/A   Clear
4:13 PM 21.2 °F 14.9 °F 16.3 °F 82% 29.61 in 10.0 mi West 4.6 mph - N/A   Scattered Clouds
4:32 PM 20.3 °F - 15.8 °F 83% 29.61 in 10.0 mi Calm Calm - N/A   Scattered Clouds
4:53 PM 19.9 °F - 15.8 °F 84% 29.60 in 10.0 mi Calm Calm - N/A   Clear
5:13 PM 18.3 °F - 14.9 °F 86% 29.60 in 10.0 mi Calm Calm - N/A   Mostly Cloudy
5:32 PM 18.7 °F - 15.4 °F 87% 29.60 in 10.0 mi Calm Calm - N/A   Overcast
5:53 PM 18.0 °F 12.7 °F 14.5 °F 86% 29.59 in 10.0 mi ESE 3.5 mph - N/A   Overcast
6:12 PM 18.0 °F - 14.7 °F 87% 29.59 in 7.0 mi Calm Calm - N/A Snow Light Snow
6:32 PM 19.8 °F 13.2 °F 16.5 °F 87% 29.59 in 7.0 mi East 4.6 mph - N/A Snow Light Snow
6:53 PM 19.6 °F 13.0 °F 16.5 °F 88% 29.58 in 10.0 mi ESE 4.6 mph - N/A   Overcast
7:12 PM 20.5 °F 15.6 °F 17.1 °F 87% 29.58 in 10.0 mi ESE 3.5 mph - N/A Snow Light Snow
7:32 PM 20.7 °F 14.2 °F 17.4 °F 87% 29.57 in 10.0 mi ESE 4.6 mph - N/A Snow Light Snow
7:53 PM 20.8 °F 14.4 °F 17.6 °F 87% 29.55 in 10.0 mi East 4.6 mph - N/A Snow Light Snow
8:12 PM 21.0 °F 12.4 °F 17.8 °F 87% 29.55 in 10.0 mi East 6.9 mph - N/A Snow Light Snow
8:32 PM 21.0 °F 12.4 °F 18.0 °F 88% 29.53 in 10.0 mi East 6.9 mph - N/A   Overcast
8:53 PM 20.7 °F 11.0 °F 17.6 °F 88% 29.53 in 10.0 mi ENE 8.1 mph - N/A   Mostly Cloudy
9:12 PM 20.7 °F 11.0 °F 17.8 °F 89% 29.52 in 10.0 mi East 8.1 mph - N/A   Overcast
9:32 PM 20.7 °F 11.0 °F 17.8 °F 89% 29.52 in 10.0 mi East 8.1 mph - N/A   Overcast
9:53 PM 21.2 °F 11.7 °F 18.5 °F 89% 29.51 in 10.0 mi ENE 8.1 mph - N/A   Overcast
10:12 PM 21.7 °F 12.3 °F 18.9 °F 89% 29.50 in 10.0 mi East 8.1 mph - N/A   Overcast
10:33 PM 21.7 °F 13.2 °F 19.0 °F 89% 29.50 in 10.0 mi East 6.9 mph - N/A   Overcast
10:53 PM 21.9 °F 12.5 °F 19.4 °F 90% 29.49 in 5.0 mi East 8.1 mph - N/A Snow Light Snow
11:12 PM 21.9 °F 13.4 °F 19.6 °F 91% 29.50 in 2.5 mi East 6.9 mph - N/A Snow Light Snow
11:33 PM 22.1 °F 14.7 °F 20.3 °F 93% 29.49 in 2.0 mi ENE 5.8 mph - N/A Snow Light Snow
11:53 PM 22.1 °F 14.7 °F 20.3 °F 93% 29.48 in 1.2 mi ENE 5.8 mph - N/A Snow Light Snow